sensor_id;sensor_type;location;lat;lon;timestamp;P1;durP1;ratioP1;P2;durP2;ratioP2
71902;SDS011;59778;50.310;18.780;2023-11-21T00:06:03;14.83;;;5.90;;
71902;SDS011;59778;50.310;18.780;2023-11-21T00:21:24;17.30;;;6.20;;
71902;SDS011;59778;50.310;18.780;2023-11-21T00:36:45;26.50;;;11.47;;
71902;SDS011;59778;50.310;18.780;2023-11-21T00:52:06;15.37;;;6.90;;
71902;SDS011;59778;50.310;18.780;2023-11-21T01:07:28;16.30;;;7.70;;
71902;SDS011;59778;50.310;18.780;2023-11-21T01:22:49;11.37;;;4.47;;
71902;SDS011;59778;50.310;18.780;2023-11-21T01:38:10;9.30;;;4.20;;
71902;SDS011;59778;50.310;18.780;2023-11-21T01:53:31;10.87;;;4.07;;
71902;SDS011;59778;50.310;18.780;2023-11-21T02:08:52;8.50;;;3.33;;
71902;SDS011;59778;50.310;18.780;2023-11-21T02:24:14;9.17;;;3.73;;
71902;SDS011;59778;50.310;18.780;2023-11-21T02:39:35;7.63;;;2.63;;
71902;SDS011;59778;50.310;18.780;2023-11-21T02:54:56;9.73;;;3.07;;
71902;SDS011;59778;50.310;18.780;2023-11-21T03:10:17;11.60;;;4.03;;
71902;SDS011;59778;50.310;18.780;2023-11-21T03:25:40;15.40;;;4.03;;
71902;SDS011;59778;50.310;18.780;2023-11-21T03:41:01;13.87;;;4.50;;
71902;SDS011;59778;50.310;18.780;2023-11-21T03:56:23;16.20;;;4.67;;
71902;SDS011;59778;50.310;18.780;2023-11-21T04:11:44;13.47;;;5.57;;
71902;SDS011;59778;50.310;18.780;2023-11-21T04:27:06;12.17;;;4.47;;
71902;SDS011;59778;50.310;18.780;2023-11-21T04:42:27;17.03;;;7.77;;
71902;SDS011;59778;50.310;18.780;2023-11-21T04:57:49;20.53;;;8.97;;
71902;SDS011;59778;50.310;18.780;2023-11-21T05:13:11;17.83;;;7.27;;
71902;SDS011;59778;50.310;18.780;2023-11-21T05:28:32;57.37;;;23.70;;
71902;SDS011;59778;50.310;18.780;2023-11-21T05:43:53;39.23;;;18.43;;
71902;SDS011;59778;50.310;18.780;2023-11-21T05:59:15;38.60;;;14.30;;
71902;SDS011;59778;50.310;18.780;2023-11-21T06:14:36;38.23;;;14.43;;
71902;SDS011;59778;50.310;18.780;2023-11-21T06:29:57;28.73;;;12.00;;
71902;SDS011;59778;50.310;18.780;2023-11-21T06:45:18;40.87;;;16.10;;
71902;SDS011;59778;50.310;18.780;2023-11-21T07:00:41;27.93;;;12.67;;
71902;SDS011;59778;50.310;18.780;2023-11-21T07:16:07;28.20;;;12.90;;
71902;SDS011;59778;50.310;18.780;2023-11-21T07:31:29;29.77;;;13.73;;
71902;SDS011;59778;50.310;18.780;2023-11-21T07:46:50;70.17;;;23.73;;
71902;SDS011;59778;50.310;18.780;2023-11-21T08:02:12;39.67;;;15.13;;
71902;SDS011;59778;50.310;18.780;2023-11-21T08:17:33;26.53;;;9.90;;
71902;SDS011;59778;50.310;18.780;2023-11-21T08:32:54;19.83;;;9.10;;
71902;SDS011;59778;50.310;18.780;2023-11-21T08:48:19;21.33;;;9.77;;
71902;SDS011;59778;50.310;18.780;2023-11-21T09:03:40;20.13;;;9.07;;
71902;SDS011;59778;50.310;18.780;2023-11-21T09:19:01;26.33;;;10.63;;
71902;SDS011;59778;50.310;18.780;2023-11-21T09:34:25;16.43;;;6.67;;
71902;SDS011;59778;50.310;18.780;2023-11-21T09:49:49;13.47;;;4.80;;
71902;SDS011;59778;50.310;18.780;2023-11-21T10:05:10;19.30;;;8.07;;
71902;SDS011;59778;50.310;18.780;2023-11-21T10:20:33;7.00;;;2.50;;
71902;SDS011;59778;50.310;18.780;2023-11-21T10:35:55;10.80;;;3.90;;
71902;SDS011;59778;50.310;18.780;2023-11-21T10:51:16;8.33;;;3.03;;
71902;SDS011;59778;50.310;18.780;2023-11-21T11:06:41;13.00;;;3.90;;
71902;SDS011;59778;50.310;18.780;2023-11-21T11:37:42;4.20;;;1.30;;
71902;SDS011;59778;50.310;18.780;2023-11-21T11:53:13;6.00;;;1.80;;
71902;SDS011;59778;50.310;18.780;2023-11-21T12:08:34;5.43;;;1.63;;
71902;SDS011;59778;50.310;18.780;2023-11-21T12:23:56;11.87;;;4.43;;
71902;SDS011;59778;50.310;18.780;2023-11-21T12:39:18;3.43;;;1.27;;
71902;SDS011;59778;50.310;18.780;2023-11-21T12:54:39;5.23;;;2.30;;
71902;SDS011;59778;50.310;18.780;2023-11-21T13:10:00;24.80;;;13.20;;
71902;SDS011;59778;50.310;18.780;2023-11-21T13:25:29;12.97;;;4.83;;
71902;SDS011;59778;50.310;18.780;2023-11-21T13:40:52;14.03;;;5.07;;
71902;SDS011;59778;50.310;18.780;2023-11-21T13:56:14;29.63;;;11.47;;
71902;SDS011;59778;50.310;18.780;2023-11-21T14:11:40;20.20;;;10.10;;
71902;SDS011;59778;50.310;18.780;2023-11-21T14:27:01;16.17;;;6.57;;
71902;SDS011;59778;50.310;18.780;2023-11-21T14:42:23;20.50;;;9.03;;
71902;SDS011;59778;50.310;18.780;2023-11-21T14:57:47;25.10;;;14.27;;
71902;SDS011;59778;50.310;18.780;2023-11-21T15:13:12;33.93;;;17.97;;
71902;SDS011;59778;50.310;18.780;2023-11-21T15:28:33;33.30;;;17.93;;
71902;SDS011;59778;50.310;18.780;2023-11-21T15:43:55;31.83;;;15.27;;
71902;SDS011;59778;50.310;18.780;2023-11-21T15:59:16;35.40;;;19.13;;
71902;SDS011;59778;50.310;18.780;2023-11-21T16:14:37;46.00;;;24.97;;
71902;SDS011;59778;50.310;18.780;2023-11-21T16:30:10;44.00;;;19.93;;
71902;SDS011;59778;50.310;18.780;2023-11-21T16:45:32;25.83;;;11.90;;
71902;SDS011;59778;50.310;18.780;2023-11-21T17:00:53;49.50;;;19.70;;
71902;SDS011;59778;50.310;18.780;2023-11-21T17:16:15;59.93;;;24.13;;
71902;SDS011;59778;50.310;18.780;2023-11-21T17:31:37;48.13;;;17.63;;
71902;SDS011;59778;50.310;18.780;2023-11-21T17:46:58;35.77;;;14.33;;
71902;SDS011;59778;50.310;18.780;2023-11-21T18:02:21;42.43;;;17.10;;
71902;SDS011;59778;50.310;18.780;2023-11-21T18:17:42;36.80;;;14.37;;
71902;SDS011;59778;50.310;18.780;2023-11-21T18:33:03;23.10;;;10.13;;
71902;SDS011;59778;50.310;18.780;2023-11-21T18:48:25;17.57;;;7.37;;
71902;SDS011;59778;50.310;18.780;2023-11-21T19:03:46;17.37;;;8.00;;
71902;SDS011;59778;50.310;18.780;2023-11-21T19:19:07;14.80;;;6.50;;
71902;SDS011;59778;50.310;18.780;2023-11-21T19:34:28;15.47;;;6.50;;
71902;SDS011;59778;50.310;18.780;2023-11-21T19:49:50;9.63;;;3.97;;
71902;SDS011;59778;50.310;18.780;2023-11-21T20:05:12;17.07;;;6.30;;
71902;SDS011;59778;50.310;18.780;2023-11-21T20:20:35;61.83;;;28.07;;
71902;SDS011;59778;50.310;18.780;2023-11-21T20:35:57;19.07;;;8.70;;
71902;SDS011;59778;50.310;18.780;2023-11-21T20:51:18;18.47;;;7.93;;
71902;SDS011;59778;50.310;18.780;2023-11-21T21:06:40;10.70;;;4.13;;
71902;SDS011;59778;50.310;18.780;2023-11-21T21:22:01;18.23;;;8.17;;
71902;SDS011;59778;50.310;18.780;2023-11-21T21:37:23;21.57;;;9.97;;
71902;SDS011;59778;50.310;18.780;2023-11-21T21:52:44;20.00;;;9.97;;
71902;SDS011;59778;50.310;18.780;2023-11-21T22:08:06;22.33;;;8.80;;
71902;SDS011;59778;50.310;18.780;2023-11-21T22:23:28;23.90;;;9.23;;
71902;SDS011;59778;50.310;18.780;2023-11-21T22:38:49;28.53;;;10.67;;
71902;SDS011;59778;50.310;18.780;2023-11-21T22:54:10;27.43;;;12.27;;
71902;SDS011;59778;50.310;18.780;2023-11-21T23:09:32;27.87;;;12.20;;
71902;SDS011;59778;50.310;18.780;2023-11-21T23:24:53;45.23;;;16.70;;
71902;SDS011;59778;50.310;18.780;2023-11-21T23:40:15;34.13;;;13.57;;
71902;SDS011;59778;50.310;18.780;2023-11-21T23:55:36;30.20;;;12.80;;
